Time;durP1;ratioP1;P1;durP2;ratioP2;P2;SDS_P1;SDS_P2;PMS_P1;PMS_P2;Temp;Humidity;BMP_temperature;BMP_pressure;BME280_temperature;BME280_humidity;BME280_pressure;Samples;Min_cycle;Max_cycle;Signal;HPM_P1;HPM_P2
2022/10/23 00:01:16;;;;;;;8.40;4.27;;;;;;;;;;5111742;28;20250;-70
2022/10/23 00:03:42;;;;;;;20.67;4.60;;;;;;;;;;5113238;28;20229;-68
2022/10/23 00:06:09;;;;;;;9.77;3.73;;;;;;;;;;5113153;28;20184;-70
2022/10/23 00:08:35;;;;;;;10.13;4.20;;;;;;;;;;5114078;28;20267;-70
2022/10/23 00:11:05;;;;;;;16.53;4.60;;;;;;;;;;5114482;28;20200;-67
2022/10/23 00:13:31;;;;;;;16.00;4.60;;;;;;;;;;5114265;28;20195;-68
2022/10/23 00:15:57;;;;;;;12.07;4.83;;;;;;;;;;5114985;28;20204;-68
2022/10/23 00:18:23;;;;;;;11.20;4.47;;;;;;;;;;5115377;28;20258;-68
2022/10/23 00:20:48;;;;;;;10.53;4.37;;;;;;;;;;5112826;28;20196;-68
2022/10/23 00:23:16;;;;;;;10.27;4.30;;;;;;;;;;5114475;28;20547;-68
2022/10/23 00:25:41;;;;;;;10.07;4.07;;;;;;;;;;5114399;28;20187;-70
2022/10/23 00:28:07;;;;;;;19.57;5.17;;;;;;;;;;5112815;28;20181;-67
2022/10/23 00:30:33;;;;;;;11.73;4.60;;;;;;;;;;5112855;28;20202;-68
2022/10/23 00:32:59;;;;;;;12.53;4.60;;;;;;;;;;5114107;28;20176;-68
2022/10/23 00:35:25;;;;;;;18.20;5.60;;;;;;;;;;5114373;28;20200;-67
2022/10/23 00:37:51;;;;;;;14.37;5.03;;;;;;;;;;5114721;28;20184;-68
2022/10/23 00:40:17;;;;;;;13.83;4.93;;;;;;;;;;5112964;28;20197;-68
2022/10/23 00:42:43;;;;;;;11.07;4.43;;;;;;;;;;5113272;28;20275;-68
2022/10/23 00:45:12;;;;;;;13.70;4.63;;;;;;;;;;5114448;28;20225;-70
2022/10/23 00:47:38;;;;;;;10.83;4.83;;;;;;;;;;5112734;28;20176;-68
2022/10/23 00:50:04;;;;;;;13.77;5.00;;;;;;;;;;5114201;28;20204;-68
2022/10/23 00:52:30;;;;;;;12.77;5.00;;;;;;;;;;5112790;28;20317;-68
2022/10/23 00:54:56;;;;;;;8.63;4.60;;;;;;;;;;5112323;28;20180;-68
2022/10/23 00:57:22;;;;;;;14.17;4.90;;;;;;;;;;5113707;28;20317;-70
2022/10/23 00:59:48;;;;;;;11.77;4.80;;;;;;;;;;5113718;28;20700;-68
2022/10/23 01:02:14;;;;;;;14.13;4.80;;;;;;;;;;5113486;28;20538;-68
2022/10/23 01:04:40;;;;;;;13.80;4.60;;;;;;;;;;5113950;28;20173;-68
2022/10/23 01:07:12;;;;;;;15.27;6.03;;;;;;;;;;5113899;28;20177;-68
2022/10/23 01:09:44;;;;;;;14.33;5.13;;;;;;;;;;5113525;28;20195;-70
2022/10/23 01:12:15;;;;;;;13.40;5.40;;;;;;;;;;5113869;28;20640;-71
2022/10/23 01:14:53;;;;;;;11.17;4.97;;;;;;;;;;5114164;28;20168;-70
2022/10/23 01:17:28;;;;;;;15.07;5.70;;;;;;;;;;5113624;28;20185;-70
2022/10/23 01:20:30;;;;;;;8.43;4.43;;;;;;;;;;5115982;28;20230;-68
2022/10/23 01:23:14;;;;;;;9.17;4.93;;;;;;;;;;5054937;28;20224;-68
2022/10/23 01:25:58;;;;;;;14.07;5.07;;;;;;;;;;5113179;28;20200;-68
2022/10/23 01:28:30;;;;;;;13.87;5.30;;;;;;;;;;5117952;28;20180;-68
2022/10/23 01:30:57;;;;;;;15.47;5.37;;;;;;;;;;5117769;28;20196;-70
2022/10/23 01:33:25;;;;;;;17.63;5.93;;;;;;;;;;5116271;28;20674;-70
2022/10/23 01:35:53;;;;;;;11.17;5.33;;;;;;;;;;5116114;28;20634;-70
2022/10/23 01:38:19;;;;;;;16.83;5.30;;;;;;;;;;5117422;28;20180;-70
2022/10/23 01:40:50;;;;;;;12.43;4.73;;;;;;;;;;5117313;28;20203;-70
2022/10/23 01:43:19;;;;;;;10.03;5.70;;;;;;;;;;5117229;28;20222;-70
2022/10/23 01:45:53;;;;;;;20.50;5.27;;;;;;;;;;5117169;28;20230;-70
2022/10/23 01:48:23;;;;;;;15.13;4.90;;;;;;;;;;5117313;28;20156;-70
2022/10/23 01:50:50;;;;;;;13.03;4.97;;;;;;;;;;5117165;28;20200;-70
2022/10/23 01:53:17;;;;;;;10.70;5.23;;;;;;;;;;5116935;28;20250;-70
2022/10/23 01:55:43;;;;;;;16.97;5.63;;;;;;;;;;5116954;28;20683;-70
2022/10/23 01:58:10;;;;;;;16.47;5.37;;;;;;;;;;5115603;28;20177;-69
2022/10/23 02:00:38;;;;;;;12.53;5.13;;;;;;;;;;5117719;28;20208;-70
2022/10/23 02:03:06;;;;;;;11.03;4.83;;;;;;;;;;5116778;28;20225;-70
2022/10/23 02:05:32;;;;;;;12.53;4.87;;;;;;;;;;5116849;28;20187;-70
2022/10/23 02:07:58;;;;;;;10.90;4.80;;;;;;;;;;5116814;28;20188;-70
2022/10/23 02:10:47;;;;;;;11.17;5.03;;;;;;;;;;5115366;28;20200;-70
2022/10/23 02:13:21;;;;;;;10.00;4.40;;;;;;;;;;5115406;28;20643;-70
2022/10/23 02:15:49;;;;;;;10.23;4.93;;;;;;;;;;5115321;28;20249;-70
2022/10/23 02:18:27;;;;;;;9.33;4.63;;;;;;;;;;5115427;28;20652;-70
2022/10/23 02:20:55;;;;;;;14.43;5.03;;;;;;;;;;5116552;28;20659;-70
2022/10/23 02:23:27;;;;;;;11.43;4.93;;;;;;;;;;5115194;28;20640;-70
2022/10/23 02:25:59;;;;;;;9.40;4.73;;;;;;;;;;5116513;28;20173;-68
2022/10/23 02:28:27;;;;;;;7.30;4.20;;;;;;;;;;5115079;28;20177;-70
2022/10/23 02:30:54;;;;;;;11.57;4.97;;;;;;;;;;5114207;28;20287;-70
2022/10/23 02:33:21;;;;;;;9.13;4.30;;;;;;;;;;5114983;28;20188;-70
2022/10/23 02:35:48;;;;;;;10.97;4.70;;;;;;;;;;5114845;28;20240;-69
2022/10/23 02:38:31;;;;;;;11.00;4.53;;;;;;;;;;5116362;28;20173;-70
2022/10/23 02:41:00;;;;;;;7.10;4.97;;;;;;;;;;5116145;28;20200;-71
2022/10/23 02:43:34;;;;;;;10.30;4.53;;;;;;;;;;5114772;28;20659;-68
2022/10/23 02:46:08;;;;;;;6.43;4.60;;;;;;;;;;5114729;28;20177;-70
2022/10/23 02:49:08;;;;;;;15.57;4.60;;;;;;;;;;5114759;28;20176;-69
2022/10/23 02:51:42;;;;;;;11.03;4.30;;;;;;;;;;5082811;28;20275;-70
2022/10/23 02:54:18;;;;;;;10.17;4.03;;;;;;;;;;5114591;28;20685;-70
2022/10/23 02:56:54;;;;;;;6.40;4.23;;;;;;;;;;5115783;28;20219;-70
2022/10/23 02:59:30;;;;;;;14.20;4.33;;;;;;;;;;5114350;28;20219;-68
2022/10/23 03:02:06;;;;;;;9.40;4.47;;;;;;;;;;5115726;28;20217;-68
2022/10/23 03:04:32;;;;;;;9.17;4.30;;;;;;;;;;5115694;28;20176;-68
2022/10/23 03:06:58;;;;;;;7.67;4.40;;;;;;;;;;5115704;28;20569;-68
2022/10/23 03:09:25;;;;;;;5.83;3.87;;;;;;;;;;5115457;28;20329;-69
2022/10/23 03:11:51;;;;;;;9.90;4.07;;;;;;;;;;5114209;28;20184;-68
2022/10/23 03:14:18;;;;;;;13.27;4.67;;;;;;;;;;5115469;28;20520;-68
2022/10/23 03:16:44;;;;;;;11.90;4.77;;;;;;;;;;5115632;28;20207;-68
2022/10/23 03:19:11;;;;;;;11.70;4.50;;;;;;;;;;5114019;28;20636;-69
2022/10/23 03:21:37;;;;;;;8.83;3.87;;;;;;;;;;5114042;28;20560;-69
2022/10/23 03:24:03;;;;;;;7.90;4.20;;;;;;;;;;5115545;28;20168;-69
2022/10/23 03:26:29;;;;;;;10.47;4.57;;;;;;;;;;5115168;28;20230;-68
2022/10/23 03:28:55;;;;;;;11.97;4.10;;;;;;;;;;5115261;28;20540;-69
2022/10/23 03:31:21;;;;;;;12.60;4.30;;;;;;;;;;5113864;28;20259;-68
2022/10/23 03:33:47;;;;;;;7.27;4.00;;;;;;;;;;5115088;28;20180;-69
2022/10/23 03:36:13;;;;;;;9.67;4.37;;;;;;;;;;5115164;28;20214;-69
2022/10/23 03:38:39;;;;;;;6.97;4.30;;;;;;;;;;5114873;28;20183;-69
2022/10/23 03:41:05;;;;;;;12.07;4.43;;;;;;;;;;5113737;28;20207;-68
2022/10/23 03:43:31;;;;;;;13.13;4.60;;;;;;;;;;5114197;28;20250;-69
2022/10/23 03:45:57;;;;;;;12.13;4.90;;;;;;;;;;5113523;28;20272;-69
2022/10/23 03:48:23;;;;;;;12.57;4.40;;;;;;;;;;5113385;28;20173;-69
2022/10/23 03:50:50;;;;;;;8.77;4.07;;;;;;;;;;5113398;28;20265;-69
2022/10/23 03:53:15;;;;;;;7.43;4.00;;;;;;;;;;5115174;28;20177;-69
2022/10/23 03:55:43;;;;;;;7.93;4.40;;;;;;;;;;5113213;28;20208;-69
2022/10/23 03:58:09;;;;;;;5.87;4.17;;;;;;;;;;5113363;28;20720;-69
2022/10/23 04:00:35;;;;;;;9.80;4.40;;;;;;;;;;5114422;28;20212;-69
2022/10/23 04:03:01;;;;;;;8.03;4.60;;;;;;;;;;5114723;28;20199;-69
2022/10/23 04:05:27;;;;;;;10.47;4.30;;;;;;;;;;5113147;28;20184;-69
2022/10/23 04:07:53;;;;;;;9.07;4.70;;;;;;;;;;5113079;28;20180;-68
2022/10/23 04:10:19;;;;;;;8.30;4.40;;;;;;;;;;5114369;28;20279;-69
2022/10/23 04:12:45;;;;;;;11.03;4.23;;;;;;;;;;5114607;28;20181;-68
2022/10/23 04:15:10;;;;;;;9.30;4.30;;;;;;;;;;5114397;28;20229;-69
2022/10/23 04:17:36;;;;;;;7.47;4.50;;;;;;;;;;5114228;28;20177;-69
2022/10/23 04:20:03;;;;;;;11.00;4.30;;;;;;;;;;5114191;28;20192;-69
2022/10/23 04:22:29;;;;;;;8.20;4.20;;;;;;;;;;5114644;28;20176;-69
2022/10/23 04:24:55;;;;;;;11.03;3.70;;;;;;;;;;5114250;28;20169;-69
2022/10/23 04:27:21;;;;;;;9.13;4.27;;;;;;;;;;5112749;28;20176;-69
2022/10/23 04:29:48;;;;;;;7.40;4.13;;;;;;;;;;5114264;28;20299;-68
2022/10/23 04:32:13;;;;;;;11.77;4.00;;;;;;;;;;5113990;28;20263;-68
2022/10/23 04:34:39;;;;;;;14.67;4.27;;;;;;;;;;5113940;28;20207;-68
2022/10/23 04:37:05;;;;;;;10.80;4.00;;;;;;;;;;5112565;28;20257;-68
2022/10/23 04:39:31;;;;;;;6.27;3.60;;;;;;;;;;5112436;28;20621;-68
2022/10/23 04:41:57;;;;;;;9.10;4.67;;;;;;;;;;5113697;28;20172;-68
2022/10/23 04:44:23;;;;;;;11.27;4.83;;;;;;;;;;5114024;28;20241;-69
2022/10/23 04:46:49;;;;;;;8.73;4.33;;;;;;;;;;5113598;28;20184;-68
2022/10/23 04:49:15;;;;;;;7.03;3.60;;;;;;;;;;5112317;28;20208;-69
2022/10/23 04:51:41;;;;;;;9.63;4.00;;;;;;;;;;5112447;28;20241;-69
2022/10/23 04:54:08;;;;;;;8.40;4.43;;;;;;;;;;5113901;28;20233;-68
2022/10/23 04:56:34;;;;;;;11.50;4.00;;;;;;;;;;5127843;28;20207;-68
2022/10/23 04:59:00;;;;;;;11.80;4.03;;;;;;;;;;5133758;28;20248;-69
2022/10/23 05:01:26;;;;;;;16.43;4.17;;;;;;;;;;5138216;28;20164;-68
2022/10/23 05:03:53;;;;;;;10.47;3.97;;;;;;;;;;5119826;28;20175;-68
2022/10/23 05:06:19;;;;;;;9.07;3.73;;;;;;;;;;5113184;28;20191;-68
2022/10/23 05:08:45;;;;;;;8.40;3.90;;;;;;;;;;5112435;28;20184;-67
2022/10/23 05:11:11;;;;;;;7.90;3.90;;;;;;;;;;5112249;28;20182;-68
2022/10/23 05:13:37;;;;;;;10.80;4.30;;;;;;;;;;5113989;28;20176;-68
2022/10/23 05:16:03;;;;;;;7.17;3.90;;;;;;;;;;5113915;28;20564;-68
2022/10/23 05:18:34;;;;;;;8.53;4.03;;;;;;;;;;5113768;28;20573;-69
2022/10/23 05:21:03;;;;;;;9.60;3.87;;;;;;;;;;5113342;28;20200;-69
2022/10/23 05:23:30;;;;;;;8.30;3.43;;;;;;;;;;5112081;28;20184;-69
2022/10/23 05:25:56;;;;;;;9.20;3.83;;;;;;;;;;5112021;28;20184;-69
2022/10/23 05:28:22;;;;;;;10.00;4.10;;;;;;;;;;5112011;28;20180;-69
2022/10/23 05:30:49;;;;;;;8.90;3.70;;;;;;;;;;5111948;28;20248;-69
2022/10/23 05:33:15;;;;;;;15.53;4.27;;;;;;;;;;5113254;28;20176;-69
2022/10/23 05:35:41;;;;;;;5.47;3.47;;;;;;;;;;5113398;28;20196;-69
2022/10/23 05:38:08;;;;;;;9.07;3.70;;;;;;;;;;5111946;28;20263;-69
2022/10/23 05:40:34;;;;;;;11.17;3.80;;;;;;;;;;5113350;28;20353;-69
2022/10/23 05:43:00;;;;;;;10.07;4.13;;;;;;;;;;5113427;28;20630;-69
2022/10/23 05:45:26;;;;;;;14.20;3.83;;;;;;;;;;5113097;28;20180;-69
2022/10/23 05:47:52;;;;;;;7.70;3.40;;;;;;;;;;5113402;28;20229;-68
2022/10/23 05:50:18;;;;;;;7.47;3.53;;;;;;;;;;5111891;28;20200;-69
2022/10/23 05:52:47;;;;;;;9.93;3.23;;;;;;;;;;5113667;28;20277;-69
2022/10/23 05:55:14;;;;;;;8.57;3.43;;;;;;;;;;5111721;28;20202;-69
2022/10/23 05:57:40;;;;;;;10.23;3.40;;;;;;;;;;5111751;28;20218;-69
2022/10/23 06:00:06;;;;;;;7.30;3.30;;;;;;;;;;5113190;28;20227;-69
2022/10/23 06:02:33;;;;;;;10.13;3.63;;;;;;;;;;5113000;28;20187;-69
2022/10/23 06:04:59;;;;;;;6.00;3.47;;;;;;;;;;5112013;28;20685;-69
2022/10/23 06:07:25;;;;;;;10.17;3.43;;;;;;;;;;5115406;28;20189;-68
2022/10/23 06:09:51;;;;;;;6.90;3.10;;;;;;;;;;5115217;28;20236;-68
2022/10/23 06:12:18;;;;;;;10.73;3.40;;;;;;;;;;5115166;28;20640;-69
2022/10/23 06:14:44;;;;;;;12.17;3.83;;;;;;;;;;5115279;28;20180;-69
2022/10/23 06:17:10;;;;;;;8.70;3.20;;;;;;;;;;5117002;28;20283;-69
2022/10/23 06:19:35;;;;;;;7.67;3.90;;;;;;;;;;5115145;28;20197;-69
2022/10/23 06:22:01;;;;;;;6.07;3.53;;;;;;;;;;5115237;28;20172;-69
2022/10/23 06:24:27;;;;;;;9.33;4.00;;;;;;;;;;5115043;28;20176;-69
2022/10/23 06:26:53;;;;;;;6.37;3.03;;;;;;;;;;5115059;28;20180;-69
2022/10/23 06:29:19;;;;;;;4.23;3.33;;;;;;;;;;5116891;28;20588;-69
2022/10/23 06:31:45;;;;;;;8.07;3.20;;;;;;;;;;5129827;22;20741;-65
2022/10/23 06:34:11;;;;;;;6.00;3.20;;;;;;;;;;5116648;28;20175;-65
2022/10/23 06:36:38;;;;;;;10.00;3.67;;;;;;;;;;5116277;28;20196;-67
2022/10/23 06:39:04;;;;;;;5.13;3.00;;;;;;;;;;5098031;28;20176;-66
2022/10/23 06:41:30;;;;;;;6.43;2.80;;;;;;;;;;5116202;28;20280;-65
2022/10/23 06:43:56;;;;;;;6.50;3.23;;;;;;;;;;5097934;28;20204;-66
2022/10/23 06:46:22;;;;;;;13.43;3.60;;;;;;;;;;5097779;28;20215;-66
2022/10/23 06:48:48;;;;;;;8.20;3.43;;;;;;;;;;5098322;28;20191;-66
2022/10/23 06:51:15;;;;;;;7.07;3.57;;;;;;;;;;5115948;28;20200;-65
2022/10/23 06:53:42;;;;;;;8.30;3.67;;;;;;;;;;5097943;28;20199;-65
2022/10/23 06:56:08;;;;;;;4.57;3.17;;;;;;;;;;5097492;28;20200;-66
2022/10/23 06:58:35;;;;;;;7.00;3.23;;;;;;;;;;5115822;28;20176;-65
2022/10/23 07:01:02;;;;;;;6.83;2.97;;;;;;;;;;5115744;28;20275;-65
2022/10/23 07:03:28;;;;;;;9.30;3.67;;;;;;;;;;5116291;28;20255;-66
2022/10/23 07:05:54;;;;;;;11.90;3.77;;;;;;;;;;5115668;28;20177;-65
2022/10/23 07:08:20;;;;;;;5.57;3.33;;;;;;;;;;5115802;28;20183;-66
2022/10/23 07:10:47;;;;;;;7.67;3.97;;;;;;;;;;5115548;28;20729;-66
2022/10/23 07:13:13;;;;;;;9.80;4.17;;;;;;;;;;5115622;28;20175;-65
2022/10/23 07:15:40;;;;;;;6.47;3.50;;;;;;;;;;5115401;28;20201;-65
2022/10/23 07:18:06;;;;;;;8.80;3.37;;;;;;;;;;5115341;28;20222;-66
2022/10/23 07:20:32;;;;;;;11.70;3.70;;;;;;;;;;5115616;28;20188;-66
2022/10/23 07:22:58;;;;;;;8.47;3.83;;;;;;;;;;5115210;28;20637;-65
2022/10/23 07:25:25;;;;;;;10.13;3.60;;;;;;;;;;5097075;28;20176;-66
2022/10/23 07:27:51;;;;;;;8.20;3.93;;;;;;;;;;5115322;28;20180;-66
2022/10/23 07:30:17;;;;;;;6.63;3.50;;;;;;;;;;5097334;28;20176;-68
2022/10/23 07:32:44;;;;;;;6.50;3.40;;;;;;;;;;5116013;28;20263;-66
2022/10/23 07:35:11;;;;;;;6.40;3.07;;;;;;;;;;5115659;28;20181;-67
2022/10/23 07:37:37;;;;;;;6.27;3.20;;;;;;;;;;5115480;28;20644;-66
2022/10/23 07:40:03;;;;;;;9.27;2.93;;;;;;;;;;5096683;28;20215;-66
2022/10/23 07:42:29;;;;;;;7.23;3.20;;;;;;;;;;5096971;28;20259;-66
2022/10/23 07:44:55;;;;;;;7.93;3.37;;;;;;;;;;5096867;28;20313;-66
2022/10/23 07:47:21;;;;;;;6.57;3.70;;;;;;;;;;5115020;28;20172;-66
2022/10/23 07:49:47;;;;;;;10.10;3.80;;;;;;;;;;5115259;28;20183;-67
2022/10/23 07:52:14;;;;;;;10.00;4.73;;;;;;;;;;5096502;28;20290;-66
2022/10/23 07:54:40;;;;;;;6.77;5.20;;;;;;;;;;5114991;28;20181;-66
2022/10/23 07:57:06;;;;;;;8.67;4.17;;;;;;;;;;5114811;28;20668;-66
2022/10/23 07:59:32;;;;;;;6.73;3.50;;;;;;;;;;5114710;28;20172;-66
2022/10/23 08:01:58;;;;;;;7.43;3.80;;;;;;;;;;5114953;28;20603;-66
2022/10/23 08:04:24;;;;;;;7.47;3.23;;;;;;;;;;5096429;28;20177;-67
2022/10/23 08:06:50;;;;;;;4.77;2.90;;;;;;;;;;5096623;28;20724;-67
2022/10/23 08:09:16;;;;;;;7.73;3.33;;;;;;;;;;5096475;28;20215;-68
2022/10/23 08:11:42;;;;;;;8.23;3.70;;;;;;;;;;5114627;28;20200;-67
2022/10/23 08:14:09;;;;;;;6.73;3.87;;;;;;;;;;5114620;28;20183;-66
2022/10/23 08:16:37;;;;;;;6.77;4.50;;;;;;;;;;5097111;28;20249;-66
2022/10/23 08:19:03;;;;;;;8.30;7.40;;;;;;;;;;5096031;28;20232;-66
2022/10/23 08:21:29;;;;;;;5.63;3.43;;;;;;;;;;5114697;28;20230;-67
2022/10/23 08:23:56;;;;;;;10.00;4.70;;;;;;;;;;5114497;28;20185;-66
2022/10/23 08:26:23;;;;;;;10.33;4.03;;;;;;;;;;5115166;28;20259;-67
2022/10/23 08:28:49;;;;;;;10.00;3.00;;;;;;;;;;5097360;28;20271;-67
2022/10/23 08:31:16;;;;;;;5.03;3.30;;;;;;;;;;5097064;28;20734;-67
2022/10/23 08:33:42;;;;;;;5.40;3.10;;;;;;;;;;5116022;28;20204;-67
2022/10/23 08:36:41;;;;;;;9.03;3.40;;;;;;;;;;5097797;28;20254;-67
2022/10/23 08:39:07;;;;;;;8.57;3.40;;;;;;;;;;5071273;28;20211;-67
2022/10/23 08:41:38;;;;;;;6.57;2.73;;;;;;;;;;5115726;28;20192;-67
2022/10/23 08:44:07;;;;;;;4.93;2.80;;;;;;;;;;5114812;28;20588;-67
2022/10/23 08:46:36;;;;;;;5.53;2.40;;;;;;;;;;5096039;28;20253;-66
2022/10/23 08:49:08;;;;;;;7.63;2.80;;;;;;;;;;5095661;28;20216;-67
2022/10/23 08:51:37;;;;;;;5.13;2.60;;;;;;;;;;5114109;28;20200;-66
2022/10/23 08:54:18;;;;;;;5.60;2.27;;;;;;;;;;5114091;28;20187;-66
2022/10/23 08:56:49;;;;;;;4.93;2.90;;;;;;;;;;5095503;28;20296;-66
2022/10/23 08:59:36;;;;;;;6.20;2.73;;;;;;;;;;5114370;28;20214;-67
2022/10/23 09:02:21;;;;;;;5.00;2.47;;;;;;;;;;5095498;28;20207;-66
2022/10/23 09:04:48;;;;;;;3.03;2.20;;;;;;;;;;5095335;28;20206;-67
2022/10/23 09:07:33;;;;;;;9.37;2.53;;;;;;;;;;5113647;28;20179;-66
2022/10/23 09:10:06;;;;;;;5.07;2.70;;;;;;;;;;5095292;28;20524;-66
2022/10/23 09:12:32;;;;;;;7.93;2.30;;;;;;;;;;5113887;28;20192;-66
2022/10/23 09:15:04;;;;;;;9.27;2.60;;;;;;;;;;5095217;28;20309;-66
2022/10/23 09:17:34;;;;;;;4.63;2.10;;;;;;;;;;5113268;28;20640;-67
2022/10/23 09:20:00;;;;;;;4.90;2.40;;;;;;;;;;5113321;28;20157;-67
2022/10/23 09:22:26;;;;;;;3.77;2.20;;;;;;;;;;5113356;28;20195;-67
2022/10/23 09:24:52;;;;;;;9.90;2.20;;;;;;;;;;5113825;28;20177;-66
2022/10/23 09:27:18;;;;;;;4.07;2.10;;;;;;;;;;5096009;28;20249;-67
2022/10/23 09:29:49;;;;;;;19.50;9.93;;;;;;;;;;5113381;28;20638;-66
2022/10/23 09:32:15;;;;;;;5.73;2.63;;;;;;;;;;5113215;28;20268;-68
2022/10/23 09:34:49;;;;;;;6.53;2.33;;;;;;;;;;5095149;28;20267;-66
2022/10/23 09:37:28;;;;;;;6.97;2.50;;;;;;;;;;5113761;28;20275;-67
2022/10/23 09:40:02;;;;;;;6.37;2.47;;;;;;;;;;5095262;28;20184;-66
2022/10/23 09:42:27;;;;;;;8.13;2.40;;;;;;;;;;5117274;28;20173;-66
2022/10/23 09:44:54;;;;;;;6.80;2.73;;;;;;;;;;5117655;28;20173;-66
2022/10/23 09:47:22;;;;;;;6.83;2.23;;;;;;;;;;5117183;28;20751;-66
2022/10/23 09:49:58;;;;;;;5.53;2.83;;;;;;;;;;5098916;28;20286;-66
2022/10/23 09:52:28;;;;;;;7.90;2.80;;;;;;;;;;5117533;28;20244;-66
2022/10/23 09:54:56;;;;;;;6.93;2.53;;;;;;;;;;5098868;28;20172;-67
2022/10/23 09:57:22;;;;;;;4.57;2.03;;;;;;;;;;5116812;28;20219;-66
2022/10/23 09:59:56;;;;;;;3.40;2.30;;;;;;;;;;5117259;28;20200;-67
2022/10/23 10:02:28;;;;;;;7.47;2.33;;;;;;;;;;5116839;28;20197;-67
2022/10/23 10:04:54;;;;;;;5.73;2.10;;;;;;;;;;5116955;28;20659;-67
2022/10/23 10:07:21;;;;;;;4.60;2.10;;;;;;;;;;5116705;28;20177;-67
2022/10/23 10:09:48;;;;;;;6.40;2.50;;;;;;;;;;5117009;28;20179;-66
2022/10/23 10:12:32;;;;;;;7.83;2.57;;;;;;;;;;5098316;28;20200;-67
2022/10/23 10:15:08;;;;;;;9.37;3.00;;;;;;;;;;5098175;28;20229;-66
2022/10/23 10:17:47;;;;;;;5.53;2.30;;;;;;;;;;5116332;28;20203;-67
2022/10/23 10:20:32;;;;;;;6.47;2.27;;;;;;;;;;5116582;28;20214;-66
2022/10/23 10:23:00;;;;;;;6.33;2.10;;;;;;;;;;5116353;28;20164;-67
2022/10/23 10:25:32;;;;;;;6.10;2.17;;;;;;;;;;5116279;28;20251;-67
2022/10/23 10:27:59;;;;;;;7.63;2.27;;;;;;;;;;5116305;28;20184;-67
2022/10/23 10:30:27;;;;;;;5.10;2.47;;;;;;;;;;5097816;28;20192;-64
2022/10/23 10:32:53;;;;;;;3.90;2.10;;;;;;;;;;5098149;28;20165;-66
2022/10/23 10:35:31;;;;;;;6.37;2.43;;;;;;;;;;5116423;28;20179;-64
2022/10/23 10:37:57;;;;;;;8.60;2.50;;;;;;;;;;5097905;28;20620;-66
2022/10/23 10:40:38;;;;;;;3.47;2.47;;;;;;;;;;5097701;28;20252;-67
2022/10/23 10:43:06;;;;;;;3.73;2.20;;;;;;;;;;5116248;28;20172;-66
2022/10/23 10:45:33;;;;;;;6.03;2.40;;;;;;;;;;5097813;28;20689;-67
2022/10/23 10:48:11;;;;;;;3.13;2.03;;;;;;;;;;5116141;28;20225;-66
2022/10/23 10:50:59;;;;;;;6.30;2.63;;;;;;;;;;5115759;28;20283;-67
2022/10/23 10:53:30;;;;;;;6.47;2.43;;;;;;;;;;5115783;28;20321;-68
2022/10/23 10:55:57;;;;;;;9.57;2.47;;;;;;;;;;5097495;28;20193;-67
2022/10/23 10:58:27;;;;;;;7.63;2.20;;;;;;;;;;5097403;28;20177;-68
2022/10/23 11:00:58;;;;;;;5.23;2.67;;;;;;;;;;5116108;28;20203;-66
2022/10/23 11:03:30;;;;;;;5.23;2.50;;;;;;;;;;5116761;28;20511;-66
2022/10/23 11:05:57;;;;;;;10.13;2.57;;;;;;;;;;5115718;28;20229;-66
2022/10/23 11:08:29;;;;;;;6.50;2.60;;;;;;;;;;5115539;28;20207;-66
2022/10/23 11:11:00;;;;;;;3.13;2.30;;;;;;;;;;5115465;28;20200;-66
2022/10/23 11:13:33;;;;;;;5.60;2.40;;;;;;;;;;5115992;28;20164;-66
2022/10/23 11:16:01;;;;;;;4.77;2.60;;;;;;;;;;5115630;28;20189;-66
2022/10/23 11:18:29;;;;;;;6.80;2.73;;;;;;;;;;5115335;28;20180;-66
2022/10/23 11:21:07;;;;;;;8.73;2.47;;;;;;;;;;5115245;28;20668;-66
2022/10/23 11:23:51;;;;;;;2.93;2.17;;;;;;;;;;5097054;28;20191;-66
2022/10/23 11:26:26;;;;;;;11.43;2.80;;;;;;;;;;5115257;28;20263;-66
2022/10/23 11:28:52;;;;;;;4.43;2.27;;;;;;;;;;5096815;28;20180;-66
2022/10/23 11:31:24;;;;;;;3.03;2.20;;;;;;;;;;5096577;28;20537;-65
2022/10/23 11:34:23;;;;;;;4.10;2.50;;;;;;;;;;5096791;28;20269;-66
2022/10/23 11:37:00;;;;;;;4.13;2.20;;;;;;;;;;5070035;28;20639;-66
2022/10/23 11:39:30;;;;;;;7.27;2.40;;;;;;;;;;5115034;28;20199;-66
2022/10/23 11:41:57;;;;;;;4.83;2.00;;;;;;;;;;5114847;28;20220;-66
2022/10/23 11:44:26;;;;;;;3.47;2.10;;;;;;;;;;5096602;28;20226;-66
2022/10/23 11:47:03;;;;;;;13.70;2.33;;;;;;;;;;5114828;28;20172;-65
2022/10/23 11:49:29;;;;;;;3.33;2.03;;;;;;;;;;5114901;28;20176;-66
2022/10/23 11:51:59;;;;;;;10.83;2.60;;;;;;;;;;5114634;28;20192;-66
2022/10/23 11:54:26;;;;;;;5.40;2.10;;;;;;;;;;5114871;28;20205;-67
2022/10/23 11:57:07;;;;;;;2.83;1.73;;;;;;;;;;5114549;28;20632;-66
2022/10/23 11:59:33;;;;;;;7.53;2.20;;;;;;;;;;5096352;28;20267;-66
2022/10/23 12:02:00;;;;;;;2.57;2.07;;;;;;;;;;5096237;28;20688;-66
2022/10/23 12:04:39;;;;;;;9.53;2.53;;;;;;;;;;5113670;28;20180;-66
2022/10/23 12:07:14;;;;;;;3.57;2.07;;;;;;;;;;5096180;28;20204;-66
2022/10/23 12:09:43;;;;;;;2.30;1.87;;;;;;;;;;5096022;28;20656;-66
2022/10/23 12:12:09;;;;;;;3.90;2.10;;;;;;;;;;5114227;28;20196;-66
2022/10/23 12:14:38;;;;;;;4.73;2.20;;;;;;;;;;5114487;28;20659;-65
2022/10/23 12:17:22;;;;;;;3.30;2.23;;;;;;;;;;5114517;28;20212;-66
2022/10/23 12:19:49;;;;;;;6.30;1.97;;;;;;;;;;5114302;28;20176;-66
2022/10/23 12:22:15;;;;;;;6.73;2.33;;;;;;;;;;5096051;28;20575;-66
2022/10/23 12:24:47;;;;;;;5.10;2.07;;;;;;;;;;5114318;28;20259;-65
2022/10/23 12:27:13;;;;;;;8.93;2.13;;;;;;;;;;5095873;28;20172;-66
2022/10/23 12:29:46;;;;;;;4.10;2.00;;;;;;;;;;5095849;28;20286;-66
2022/10/23 12:32:18;;;;;;;5.10;2.03;;;;;;;;;;5113692;28;20666;-66
2022/10/23 12:34:44;;;;;;;8.53;2.27;;;;;;;;;;5114026;28;20176;-66
2022/10/23 12:37:22;;;;;;;7.07;2.07;;;;;;;;;;5114090;28;20211;-65
2022/10/23 12:39:52;;;;;;;9.57;2.47;;;;;;;;;;5114104;28;20172;-66
2022/10/23 12:42:22;;;;;;;3.40;1.87;;;;;;;;;;5114100;28;20192;-66
2022/10/23 12:45:01;;;;;;;4.20;2.33;;;;;;;;;;5113863;28;20195;-66
2022/10/23 12:47:28;;;;;;;4.60;2.10;;;;;;;;;;5113814;28;20749;-66
2022/10/23 12:49:54;;;;;;;3.53;2.33;;;;;;;;;;5113782;28;20658;-66
2022/10/23 12:52:20;;;;;;;4.67;1.93;;;;;;;;;;5113842;28;20207;-66
2022/10/23 12:54:46;;;;;;;6.47;2.47;;;;;;;;;;5095634;28;20187;-66
2022/10/23 12:57:19;;;;;;;4.07;2.20;;;;;;;;;;5114088;28;20214;-66
2022/10/23 12:59:45;;;;;;;7.87;2.33;;;;;;;;;;5113713;28;20175;-65
2022/10/23 13:02:25;;;;;;;4.37;2.53;;;;;;;;;;5095333;28;20200;-66
2022/10/23 13:04:52;;;;;;;6.93;2.43;;;;;;;;;;5095364;28;20180;-66
2022/10/23 13:07:19;;;;;;;6.93;2.63;;;;;;;;;;5113814;28;20183;-66
2022/10/23 13:09:45;;;;;;;5.40;2.50;;;;;;;;;;5113534;28;20180;-65
2022/10/23 13:12:23;;;;;;;6.33;2.20;;;;;;;;;;5113435;28;20200;-66
2022/10/23 13:14:57;;;;;;;5.57;3.57;;;;;;;;;;5115706;28;20152;-66
2022/10/23 13:17:33;;;;;;;8.37;2.63;;;;;;;;;;5099406;28;20200;-66
2022/10/23 13:20:08;;;;;;;10.63;2.47;;;;;;;;;;5099379;28;20200;-66
2022/10/23 13:22:34;;;;;;;4.47;2.30;;;;;;;;;;5117964;28;20167;-66
2022/10/23 13:25:00;;;;;;;4.57;2.73;;;;;;;;;;5117668;28;20168;-66
2022/10/23 13:27:31;;;;;;;6.73;2.47;;;;;;;;;;5139644;22;20228;-67
2022/10/23 13:29:57;;;;;;;5.87;2.50;;;;;;;;;;5116313;28;20164;-68
2022/10/23 13:32:24;;;;;;;2.90;2.20;;;;;;;;;;5117544;28;20236;-68
2022/10/23 13:34:54;;;;;;;8.60;2.50;;;;;;;;;;5117424;28;20177;-67
2022/10/23 13:37:29;;;;;;;7.03;2.30;;;;;;;;;;5115945;28;20212;-67
2022/10/23 13:40:03;;;;;;;6.67;2.43;;;;;;;;;;5115925;28;20221;-68
2022/10/23 13:42:29;;;;;;;8.00;2.60;;;;;;;;;;5117116;28;20180;-67
2022/10/23 13:44:55;;;;;;;4.27;2.67;;;;;;;;;;5115787;28;20662;-67
2022/10/23 13:47:21;;;;;;;3.80;2.60;;;;;;;;;;5115750;28;20204;-68
2022/10/23 13:49:47;;;;;;;5.80;2.57;;;;;;;;;;5115651;28;20176;-68
2022/10/23 13:52:14;;;;;;;9.13;2.77;;;;;;;;;;5117402;28;20263;-67
2022/10/23 13:54:40;;;;;;;7.77;2.63;;;;;;;;;;5117199;28;20176;-67
2022/10/23 13:57:09;;;;;;;4.43;2.53;;;;;;;;;;5115594;28;20635;-68
2022/10/23 13:59:35;;;;;;;6.37;2.87;;;;;;;;;;5116930;28;20241;-67
2022/10/23 14:02:04;;;;;;;3.63;2.30;;;;;;;;;;5115727;28;20648;-67
2022/10/23 14:04:30;;;;;;;5.57;2.57;;;;;;;;;;5116874;28;20169;-67
2022/10/23 14:06:57;;;;;;;3.67;2.53;;;;;;;;;;5116720;28;20208;-67
2022/10/23 14:09:23;;;;;;;5.03;2.70;;;;;;;;;;5115932;28;20546;-67
2022/10/23 14:11:49;;;;;;;5.70;2.57;;;;;;;;;;5117610;28;20643;-67
2022/10/23 14:14:15;;;;;;;3.07;2.30;;;;;;;;;;5117017;28;20653;-67
2022/10/23 14:16:41;;;;;;;6.47;2.80;;;;;;;;;;5117488;28;20229;-67
2022/10/23 14:19:07;;;;;;;6.20;2.63;;;;;;;;;;5115914;28;20180;-67
2022/10/23 14:21:33;;;;;;;7.20;2.97;;;;;;;;;;5117296;28;20169;-68
2022/10/23 14:23:59;;;;;;;5.83;2.93;;;;;;;;;;5117591;28;20172;-68
2022/10/23 14:26:29;;;;;;;9.20;2.80;;;;;;;;;;5115661;28;20586;-67
2022/10/23 14:28:55;;;;;;;4.40;2.80;;;;;;;;;;5117169;28;20208;-68
2022/10/23 14:31:21;;;;;;;10.83;3.03;;;;;;;;;;5116377;28;20184;-67
2022/10/23 14:33:52;;;;;;;3.50;3.20;;;;;;;;;;5116224;28;20181;-67
2022/10/23 14:36:18;;;;;;;4.20;2.90;;;;;;;;;;5116159;28;20652;-67
2022/10/23 14:38:44;;;;;;;13.63;3.30;;;;;;;;;;5116250;28;20589;-67
2022/10/23 14:41:12;;;;;;;7.57;3.10;;;;;;;;;;5114813;28;20276;-67
2022/10/23 14:43:38;;;;;;;4.23;3.53;;;;;;;;;;5116071;28;20173;-67
2022/10/23 14:46:08;;;;;;;8.50;3.20;;;;;;;;;;5116292;28;20696;-67
2022/10/23 14:48:36;;;;;;;8.53;3.30;;;;;;;;;;5115956;28;20200;-67